Etusivu
METAR-TAF:

METAR-TAF

Lentoasemat :

Delta, Utah, Yhdysvallat

Leveyspiiri: 39-22-50N, Pituuspiiri: 112-30-28W, korkeus merenpinnasta: 1451 m

Tämänhetkinen sää

Tämä raportti tehtiin 2 tuntia ja 50 minuuttia sitten, kello 18.06 UTC
Tuuli 37 kn etelästä puuskistuen 45 kn:hen
Lämpötila 10°C
Kosteus 37%
Ilmanpaine 1002 hPa
Näkyvyys: 6.4 km
Hajanaisia pilviä 6000 ft:n korkeudessa
Hajanaisia pilviä 7000 ft:n korkeudessa

METAR: KDTA 021806Z AUTO 19037G45KT 4SM SCT060 SCT070 10/M04 A2960 RMK AO1

Aika: 13:56 (20:56 UTC)


TAF: puuttuu

Säähavainnot ja -ennusteet yli 4000 lentoasemalta (METAR- ja TAF-raportit).

Käytössä olevat sääasemat on merkitty karttaan keltaisilla ja punaisilla pisteillä.

Aseta hiiri pisteen päälle nähdäksesi sääaseman nimen.

Klikkaa sitten nähdäksesi säähavainnot ja -ennusteet.

Kartan vaihtaminen: klikkaa mustalla rastilla varustettuja vihreitä pisteitä, niin voit zoomata sisään; viivalla varustettua vihreää pistettä, niin voit zoomata ulos tai vihreitä nuolia, niin pääset viereisille kartoille.


METAR-TAF: